sensor_id;sensor_type;location;lat;lon;timestamp;P1;durP1;ratioP1;P2;durP2;ratioP2
39188;SDS011;24915;50.858;4.376;2022-12-29T00:01:39;3.40;;;1.70;;
39188;SDS011;24915;50.858;4.376;2022-12-29T00:04:06;1.30;;;1.20;;
39188;SDS011;24915;50.858;4.376;2022-12-29T00:06:31;1.40;;;1.30;;
39188;SDS011;24915;50.858;4.376;2022-12-29T00:08:57;1.83;;;1.08;;
39188;SDS011;24915;50.858;4.376;2022-12-29T00:11:24;3.88;;;1.35;;
39188;SDS011;24915;50.858;4.376;2022-12-29T00:13:51;4.15;;;1.25;;
39188;SDS011;24915;50.858;4.376;2022-12-29T00:16:40;4.00;;;1.38;;
39188;SDS011;24915;50.858;4.376;2022-12-29T00:19:07;3.70;;;1.30;;
39188;SDS011;24915;50.858;4.376;2022-12-29T00:21:53;1.83;;;0.98;;
39188;SDS011;24915;50.858;4.376;2022-12-29T00:24:37;5.53;;;1.40;;
39188;SDS011;24915;50.858;4.376;2022-12-29T00:27:18;2.78;;;1.00;;
39188;SDS011;24915;50.858;4.376;2022-12-29T00:30:07;2.47;;;1.13;;
39188;SDS011;24915;50.858;4.376;2022-12-29T00:32:53;2.38;;;1.05;;
39188;SDS011;24915;50.858;4.376;2022-12-29T00:35:38;1.95;;;1.15;;
39188;SDS011;24915;50.858;4.376;2022-12-29T00:38:09;6.20;;;1.20;;
39188;SDS011;24915;50.858;4.376;2022-12-29T00:40:55;2.05;;;0.90;;
39188;SDS011;24915;50.858;4.376;2022-12-29T00:43:38;2.47;;;1.00;;
39188;SDS011;24915;50.858;4.376;2022-12-29T00:46:23;1.38;;;0.90;;
39188;SDS011;24915;50.858;4.376;2022-12-29T00:48:48;2.60;;;0.80;;
39188;SDS011;24915;50.858;4.376;2022-12-29T00:53:58;4.18;;;1.58;;
39188;SDS011;24915;50.858;4.376;2022-12-29T00:56:24;3.08;;;1.40;;
39188;SDS011;24915;50.858;4.376;2022-12-29T00:58:49;6.35;;;1.60;;
39188;SDS011;24915;50.858;4.376;2022-12-29T01:01:15;5.15;;;1.20;;
39188;SDS011;24915;50.858;4.376;2022-12-29T01:03:40;2.95;;;0.88;;
39188;SDS011;24915;50.858;4.376;2022-12-29T01:06:07;4.53;;;1.00;;
39188;SDS011;24915;50.858;4.376;2022-12-29T01:08:34;3.92;;;1.10;;
39188;SDS011;24915;50.858;4.376;2022-12-29T01:11:01;4.72;;;1.40;;
39188;SDS011;24915;50.858;4.376;2022-12-29T01:13:29;3.55;;;1.00;;
39188;SDS011;24915;50.858;4.376;2022-12-29T01:15:54;3.80;;;1.08;;
39188;SDS011;24915;50.858;4.376;2022-12-29T01:18:21;3.35;;;1.23;;
39188;SDS011;24915;50.858;4.376;2022-12-29T01:20:47;4.68;;;1.33;;
39188;SDS011;24915;50.858;4.376;2022-12-29T01:23:13;3.22;;;1.02;;
39188;SDS011;24915;50.858;4.376;2022-12-29T01:25:39;5.75;;;1.42;;
39188;SDS011;24915;50.858;4.376;2022-12-29T01:28:05;2.92;;;1.20;;
39188;SDS011;24915;50.858;4.376;2022-12-29T01:30:33;6.78;;;1.90;;
39188;SDS011;24915;50.858;4.376;2022-12-29T01:32:59;2.67;;;0.95;;
39188;SDS011;24915;50.858;4.376;2022-12-29T01:35:25;3.08;;;1.45;;
39188;SDS011;24915;50.858;4.376;2022-12-29T01:37:51;3.67;;;1.05;;
39188;SDS011;24915;50.858;4.376;2022-12-29T01:40:16;5.10;;;2.20;;
39188;SDS011;24915;50.858;4.376;2022-12-29T01:42:42;5.05;;;1.42;;
39188;SDS011;24915;50.858;4.376;2022-12-29T01:45:08;3.55;;;1.40;;
39188;SDS011;24915;50.858;4.376;2022-12-29T01:47:36;2.83;;;1.23;;
39188;SDS011;24915;50.858;4.376;2022-12-29T01:50:08;1.45;;;1.17;;
39188;SDS011;24915;50.858;4.376;2022-12-29T01:52:46;4.47;;;1.08;;
39188;SDS011;24915;50.858;4.376;2022-12-29T01:55:30;2.10;;;1.02;;
39188;SDS011;24915;50.858;4.376;2022-12-29T01:57:59;3.60;;;1.15;;
39188;SDS011;24915;50.858;4.376;2022-12-29T02:00:28;2.67;;;1.10;;
39188;SDS011;24915;50.858;4.376;2022-12-29T02:02:54;2.60;;;1.00;;
39188;SDS011;24915;50.858;4.376;2022-12-29T02:05:25;1.60;;;1.00;;
39188;SDS011;24915;50.858;4.376;2022-12-29T02:07:55;3.30;;;1.02;;
39188;SDS011;24915;50.858;4.376;2022-12-29T02:10:22;6.10;;;1.20;;
39188;SDS011;24915;50.858;4.376;2022-12-29T02:12:50;2.30;;;0.90;;
39188;SDS011;24915;50.858;4.376;2022-12-29T02:15:16;1.75;;;0.80;;
39188;SDS011;24915;50.858;4.376;2022-12-29T02:45:40;3.35;;;0.82;;
39188;SDS011;24915;50.858;4.376;2022-12-29T02:51:00;3.20;;;1.00;;
39188;SDS011;24915;50.858;4.376;2022-12-29T02:53:29;6.22;;;0.90;;
39188;SDS011;24915;50.858;4.376;2022-12-29T02:56:15;4.47;;;0.80;;
39188;SDS011;24915;50.858;4.376;2022-12-29T02:58:41;2.63;;;0.55;;
39188;SDS011;24915;50.858;4.376;2022-12-29T03:01:20;3.65;;;0.60;;
39188;SDS011;24915;50.858;4.376;2022-12-29T03:09:02;5.70;;;1.08;;
39188;SDS011;24915;50.858;4.376;2022-12-29T03:11:58;5.20;;;1.20;;
39188;SDS011;24915;50.858;4.376;2022-12-29T03:17:49;11.40;;;1.60;;
39188;SDS011;24915;50.858;4.376;2022-12-29T03:20:23;11.20;;;1.65;;
39188;SDS011;24915;50.858;4.376;2022-12-29T03:22:51;4.90;;;1.38;;
39188;SDS011;24915;50.858;4.376;2022-12-29T03:27:57;5.28;;;0.90;;
39188;SDS011;24915;50.858;4.376;2022-12-29T03:30:33;7.80;;;0.88;;
39188;SDS011;24915;50.858;4.376;2022-12-29T03:33:04;6.72;;;1.27;;
39188;SDS011;24915;50.858;4.376;2022-12-29T03:35:36;4.85;;;1.60;;
39188;SDS011;24915;50.858;4.376;2022-12-29T03:38:17;4.35;;;0.95;;
39188;SDS011;24915;50.858;4.376;2022-12-29T03:40:49;4.38;;;0.95;;
39188;SDS011;24915;50.858;4.376;2022-12-29T03:43:18;2.22;;;0.93;;
39188;SDS011;24915;50.858;4.376;2022-12-29T03:45:44;4.18;;;1.10;;
39188;SDS011;24915;50.858;4.376;2022-12-29T03:48:10;4.80;;;1.17;;
39188;SDS011;24915;50.858;4.376;2022-12-29T03:50:35;2.72;;;1.20;;
39188;SDS011;24915;50.858;4.376;2022-12-29T03:53:01;6.88;;;1.30;;
39188;SDS011;24915;50.858;4.376;2022-12-29T03:55:26;3.25;;;1.17;;
39188;SDS011;24915;50.858;4.376;2022-12-29T03:57:52;7.40;;;1.17;;
39188;SDS011;24915;50.858;4.376;2022-12-29T04:00:18;7.40;;;1.40;;
39188;SDS011;24915;50.858;4.376;2022-12-29T04:02:43;8.73;;;1.65;;
39188;SDS011;24915;50.858;4.376;2022-12-29T04:05:09;9.70;;;1.80;;
39188;SDS011;24915;50.858;4.376;2022-12-29T04:07:35;8.85;;;1.65;;
39188;SDS011;24915;50.858;4.376;2022-12-29T04:10:00;8.15;;;1.55;;
39188;SDS011;24915;50.858;4.376;2022-12-29T04:12:26;4.47;;;1.40;;
39188;SDS011;24915;50.858;4.376;2022-12-29T04:14:51;6.97;;;1.10;;
39188;SDS011;24915;50.858;4.376;2022-12-29T04:17:17;5.85;;;1.23;;
39188;SDS011;24915;50.858;4.376;2022-12-29T04:19:43;7.72;;;1.52;;
39188;SDS011;24915;50.858;4.376;2022-12-29T04:22:08;8.65;;;1.20;;
39188;SDS011;24915;50.858;4.376;2022-12-29T04:24:34;6.22;;;1.48;;
39188;SDS011;24915;50.858;4.376;2022-12-29T04:27:00;6.70;;;1.30;;
39188;SDS011;24915;50.858;4.376;2022-12-29T04:29:25;6.90;;;1.38;;
39188;SDS011;24915;50.858;4.376;2022-12-29T04:31:51;8.18;;;1.30;;
39188;SDS011;24915;50.858;4.376;2022-12-29T04:34:16;6.30;;;1.50;;
39188;SDS011;24915;50.858;4.376;2022-12-29T04:36:42;5.68;;;1.02;;
39188;SDS011;24915;50.858;4.376;2022-12-29T04:39:08;9.52;;;1.35;;
39188;SDS011;24915;50.858;4.376;2022-12-29T04:41:33;12.95;;;1.88;;
39188;SDS011;24915;50.858;4.376;2022-12-29T04:43:59;4.45;;;1.60;;
39188;SDS011;24915;50.858;4.376;2022-12-29T04:46:25;7.72;;;1.45;;
39188;SDS011;24915;50.858;4.376;2022-12-29T04:48:50;7.35;;;1.50;;
39188;SDS011;24915;50.858;4.376;2022-12-29T04:51:16;4.43;;;1.17;;
39188;SDS011;24915;50.858;4.376;2022-12-29T04:53:42;5.10;;;1.30;;
39188;SDS011;24915;50.858;4.376;2022-12-29T04:56:07;8.60;;;1.42;;
39188;SDS011;24915;50.858;4.376;2022-12-29T04:58:34;5.75;;;1.27;;
39188;SDS011;24915;50.858;4.376;2022-12-29T05:01:01;11.48;;;1.80;;
39188;SDS011;24915;50.858;4.376;2022-12-29T05:03:26;6.85;;;1.77;;
39188;SDS011;24915;50.858;4.376;2022-12-29T05:05:55;3.58;;;1.40;;
39188;SDS011;24915;50.858;4.376;2022-12-29T05:08:22;9.00;;;1.52;;
39188;SDS011;24915;50.858;4.376;2022-12-29T05:10:50;3.90;;;1.70;;
39188;SDS011;24915;50.858;4.376;2022-12-29T05:13:17;6.57;;;1.33;;
39188;SDS011;24915;50.858;4.376;2022-12-29T05:15:47;8.10;;;1.77;;
39188;SDS011;24915;50.858;4.376;2022-12-29T05:18:17;9.23;;;1.73;;
39188;SDS011;24915;50.858;4.376;2022-12-29T05:20:43;11.77;;;1.85;;
39188;SDS011;24915;50.858;4.376;2022-12-29T05:23:09;8.40;;;1.95;;
39188;SDS011;24915;50.858;4.376;2022-12-29T05:25:35;6.85;;;1.63;;
39188;SDS011;24915;50.858;4.376;2022-12-29T05:28:01;10.77;;;2.47;;
39188;SDS011;24915;50.858;4.376;2022-12-29T05:30:27;12.18;;;2.58;;
39188;SDS011;24915;50.858;4.376;2022-12-29T05:32:52;8.35;;;2.15;;
39188;SDS011;24915;50.858;4.376;2022-12-29T05:35:18;10.45;;;1.77;;
39188;SDS011;24915;50.858;4.376;2022-12-29T05:37:43;12.65;;;2.28;;
39188;SDS011;24915;50.858;4.376;2022-12-29T05:40:09;6.88;;;1.75;;
39188;SDS011;24915;50.858;4.376;2022-12-29T05:42:35;6.75;;;1.58;;
39188;SDS011;24915;50.858;4.376;2022-12-29T05:45:01;11.15;;;2.15;;
39188;SDS011;24915;50.858;4.376;2022-12-29T05:47:27;9.43;;;2.05;;
39188;SDS011;24915;50.858;4.376;2022-12-29T05:49:52;9.52;;;1.40;;
39188;SDS011;24915;50.858;4.376;2022-12-29T05:52:18;11.90;;;2.15;;
39188;SDS011;24915;50.858;4.376;2022-12-29T05:54:43;6.45;;;1.50;;
39188;SDS011;24915;50.858;4.376;2022-12-29T05:57:09;11.32;;;1.92;;
39188;SDS011;24915;50.858;4.376;2022-12-29T05:59:35;11.85;;;2.00;;
39188;SDS011;24915;50.858;4.376;2022-12-29T06:02:00;14.00;;;2.25;;
39188;SDS011;24915;50.858;4.376;2022-12-29T06:04:26;13.77;;;2.30;;
39188;SDS011;24915;50.858;4.376;2022-12-29T06:06:52;13.73;;;2.15;;
39188;SDS011;24915;50.858;4.376;2022-12-29T06:09:17;10.63;;;2.45;;
39188;SDS011;24915;50.858;4.376;2022-12-29T06:11:43;20.27;;;2.75;;
39188;SDS011;24915;50.858;4.376;2022-12-29T06:14:08;7.97;;;1.58;;
39188;SDS011;24915;50.858;4.376;2022-12-29T06:16:34;10.40;;;1.70;;
39188;SDS011;24915;50.858;4.376;2022-12-29T06:19:01;13.07;;;2.25;;
39188;SDS011;24915;50.858;4.376;2022-12-29T06:21:26;14.75;;;2.47;;
39188;SDS011;24915;50.858;4.376;2022-12-29T06:23:52;10.32;;;1.98;;
39188;SDS011;24915;50.858;4.376;2022-12-29T06:26:17;16.55;;;2.72;;
39188;SDS011;24915;50.858;4.376;2022-12-29T06:28:43;11.75;;;2.40;;
39188;SDS011;24915;50.858;4.376;2022-12-29T06:31:09;15.85;;;2.67;;
39188;SDS011;24915;50.858;4.376;2022-12-29T06:33:36;14.90;;;3.03;;
39188;SDS011;24915;50.858;4.376;2022-12-29T06:36:02;12.00;;;2.10;;
39188;SDS011;24915;50.858;4.376;2022-12-29T06:38:28;13.27;;;2.63;;
39188;SDS011;24915;50.858;4.376;2022-12-29T06:40:54;11.80;;;1.70;;
39188;SDS011;24915;50.858;4.376;2022-12-29T06:43:19;11.20;;;1.98;;
39188;SDS011;24915;50.858;4.376;2022-12-29T06:45:45;15.65;;;1.80;;
39188;SDS011;24915;50.858;4.376;2022-12-29T06:48:11;11.98;;;2.60;;
39188;SDS011;24915;50.858;4.376;2022-12-29T06:50:36;10.20;;;2.28;;
39188;SDS011;24915;50.858;4.376;2022-12-29T06:53:02;14.45;;;2.55;;
39188;SDS011;24915;50.858;4.376;2022-12-29T06:55:28;18.42;;;2.53;;
39188;SDS011;24915;50.858;4.376;2022-12-29T06:57:58;9.45;;;2.38;;
39188;SDS011;24915;50.858;4.376;2022-12-29T07:00:24;8.50;;;1.90;;
39188;SDS011;24915;50.858;4.376;2022-12-29T07:02:50;11.07;;;2.05;;
39188;SDS011;24915;50.858;4.376;2022-12-29T07:05:16;14.98;;;2.47;;
39188;SDS011;24915;50.858;4.376;2022-12-29T07:07:42;10.52;;;2.30;;
39188;SDS011;24915;50.858;4.376;2022-12-29T07:10:08;10.27;;;1.90;;
39188;SDS011;24915;50.858;4.376;2022-12-29T07:12:33;13.25;;;2.58;;
39188;SDS011;24915;50.858;4.376;2022-12-29T07:14:59;15.38;;;2.50;;
39188;SDS011;24915;50.858;4.376;2022-12-29T07:17:24;13.02;;;2.05;;
39188;SDS011;24915;50.858;4.376;2022-12-29T07:19:50;11.43;;;1.98;;
39188;SDS011;24915;50.858;4.376;2022-12-29T07:22:16;10.73;;;2.63;;
39188;SDS011;24915;50.858;4.376;2022-12-29T07:24:41;17.52;;;2.72;;
39188;SDS011;24915;50.858;4.376;2022-12-29T07:27:08;10.15;;;2.10;;
39188;SDS011;24915;50.858;4.376;2022-12-29T07:29:36;8.73;;;2.03;;
39188;SDS011;24915;50.858;4.376;2022-12-29T07:32:02;15.15;;;2.13;;
39188;SDS011;24915;50.858;4.376;2022-12-29T07:34:28;17.52;;;2.55;;
39188;SDS011;24915;50.858;4.376;2022-12-29T07:36:54;16.80;;;2.67;;
39188;SDS011;24915;50.858;4.376;2022-12-29T07:39:19;15.02;;;2.67;;
39188;SDS011;24915;50.858;4.376;2022-12-29T07:41:45;14.65;;;2.80;;
39188;SDS011;24915;50.858;4.376;2022-12-29T07:44:11;14.82;;;2.33;;
39188;SDS011;24915;50.858;4.376;2022-12-29T07:46:36;12.00;;;2.58;;
39188;SDS011;24915;50.858;4.376;2022-12-29T07:49:02;14.98;;;2.80;;
39188;SDS011;24915;50.858;4.376;2022-12-29T07:51:28;13.35;;;2.53;;
39188;SDS011;24915;50.858;4.376;2022-12-29T07:53:53;21.15;;;3.17;;
39188;SDS011;24915;50.858;4.376;2022-12-29T07:56:19;12.32;;;2.63;;
39188;SDS011;24915;50.858;4.376;2022-12-29T07:58:45;14.60;;;2.47;;
39188;SDS011;24915;50.858;4.376;2022-12-29T08:01:10;16.15;;;2.33;;
39188;SDS011;24915;50.858;4.376;2022-12-29T08:03:36;14.20;;;2.40;;
39188;SDS011;24915;50.858;4.376;2022-12-29T08:06:02;16.40;;;2.47;;
39188;SDS011;24915;50.858;4.376;2022-12-29T08:08:27;11.82;;;2.42;;
39188;SDS011;24915;50.858;4.376;2022-12-29T08:10:53;11.32;;;2.55;;
39188;SDS011;24915;50.858;4.376;2022-12-29T08:13:19;11.00;;;2.30;;
39188;SDS011;24915;50.858;4.376;2022-12-29T08:15:45;17.33;;;2.28;;
39188;SDS011;24915;50.858;4.376;2022-12-29T08:18:10;13.95;;;2.60;;
39188;SDS011;24915;50.858;4.376;2022-12-29T08:20:36;20.95;;;2.53;;
39188;SDS011;24915;50.858;4.376;2022-12-29T08:23:01;10.05;;;2.50;;
39188;SDS011;24915;50.858;4.376;2022-12-29T08:25:27;13.40;;;2.22;;
39188;SDS011;24915;50.858;4.376;2022-12-29T08:27:53;14.18;;;2.60;;
39188;SDS011;24915;50.858;4.376;2022-12-29T08:30:19;19.02;;;3.30;;
39188;SDS011;24915;50.858;4.376;2022-12-29T08:32:44;15.13;;;2.20;;
39188;SDS011;24915;50.858;4.376;2022-12-29T08:35:10;15.77;;;2.17;;
39188;SDS011;24915;50.858;4.376;2022-12-29T08:37:36;15.13;;;2.40;;
39188;SDS011;24915;50.858;4.376;2022-12-29T08:40:01;13.75;;;2.67;;
39188;SDS011;24915;50.858;4.376;2022-12-29T08:42:29;13.35;;;2.42;;
39188;SDS011;24915;50.858;4.376;2022-12-29T08:44:56;18.35;;;2.70;;
39188;SDS011;24915;50.858;4.376;2022-12-29T08:47:25;11.32;;;2.20;;
39188;SDS011;24915;50.858;4.376;2022-12-29T08:49:52;12.80;;;1.95;;
39188;SDS011;24915;50.858;4.376;2022-12-29T08:52:17;10.68;;;2.28;;
39188;SDS011;24915;50.858;4.376;2022-12-29T08:54:43;18.27;;;3.35;;
39188;SDS011;24915;50.858;4.376;2022-12-29T08:57:09;11.82;;;2.42;;
39188;SDS011;24915;50.858;4.376;2022-12-29T08:59:35;10.15;;;2.33;;
39188;SDS011;24915;50.858;4.376;2022-12-29T09:02:00;14.55;;;2.92;;
39188;SDS011;24915;50.858;4.376;2022-12-29T09:04:26;15.00;;;2.30;;
39188;SDS011;24915;50.858;4.376;2022-12-29T09:06:52;13.88;;;2.80;;
39188;SDS011;24915;50.858;4.376;2022-12-29T09:09:18;15.65;;;3.13;;
39188;SDS011;24915;50.858;4.376;2022-12-29T09:11:45;17.00;;;2.45;;
39188;SDS011;24915;50.858;4.376;2022-12-29T09:14:10;19.45;;;2.58;;
39188;SDS011;24915;50.858;4.376;2022-12-29T09:16:36;18.85;;;2.83;;
39188;SDS011;24915;50.858;4.376;2022-12-29T09:19:03;17.38;;;2.70;;
39188;SDS011;24915;50.858;4.376;2022-12-29T09:21:29;14.63;;;2.88;;
39188;SDS011;24915;50.858;4.376;2022-12-29T09:23:55;10.77;;;2.78;;
39188;SDS011;24915;50.858;4.376;2022-12-29T09:26:21;12.40;;;2.65;;
39188;SDS011;24915;50.858;4.376;2022-12-29T09:28:46;13.75;;;3.15;;
39188;SDS011;24915;50.858;4.376;2022-12-29T09:31:12;18.98;;;3.25;;
39188;SDS011;24915;50.858;4.376;2022-12-29T09:33:38;13.80;;;2.67;;
39188;SDS011;24915;50.858;4.376;2022-12-29T09:36:05;18.88;;;2.72;;
39188;SDS011;24915;50.858;4.376;2022-12-29T09:38:30;14.57;;;2.97;;
39188;SDS011;24915;50.858;4.376;2022-12-29T09:41:01;22.40;;;3.35;;
39188;SDS011;24915;50.858;4.376;2022-12-29T09:49:08;17.05;;;3.40;;
39188;SDS011;24915;50.858;4.376;2022-12-29T09:51:57;13.32;;;2.92;;
39188;SDS011;24915;50.858;4.376;2022-12-29T10:00:09;24.30;;;4.00;;
39188;SDS011;24915;50.858;4.376;2022-12-29T10:03:02;13.63;;;2.80;;
39188;SDS011;24915;50.858;4.376;2022-12-29T10:08:16;25.58;;;4.07;;
39188;SDS011;24915;50.858;4.376;2022-12-29T10:10:50;23.52;;;3.45;;
39188;SDS011;24915;50.858;4.376;2022-12-29T10:13:26;15.35;;;2.70;;
39188;SDS011;24915;50.858;4.376;2022-12-29T10:23:39;20.15;;;3.00;;
39188;SDS011;24915;50.858;4.376;2022-12-29T10:26:19;14.60;;;2.70;;
39188;SDS011;24915;50.858;4.376;2022-12-29T10:28:52;25.08;;;3.63;;
39188;SDS011;24915;50.858;4.376;2022-12-29T10:31:37;16.52;;;2.88;;
39188;SDS011;24915;50.858;4.376;2022-12-29T10:34:41;22.17;;;3.38;;
39188;SDS011;24915;50.858;4.376;2022-12-29T10:37:11;25.10;;;4.03;;
39188;SDS011;24915;50.858;4.376;2022-12-29T10:39:51;18.65;;;3.30;;
39188;SDS011;24915;50.858;4.376;2022-12-29T10:44:46;30.98;;;3.85;;
39188;SDS011;24915;50.858;4.376;2022-12-29T10:47:13;15.45;;;2.80;;
39188;SDS011;24915;50.858;4.376;2022-12-29T10:49:43;20.52;;;4.15;;
39188;SDS011;24915;50.858;4.376;2022-12-29T10:52:11;22.95;;;3.45;;
39188;SDS011;24915;50.858;4.376;2022-12-29T10:54:51;17.98;;;2.97;;
39188;SDS011;24915;50.858;4.376;2022-12-29T10:59:58;20.08;;;2.92;;
39188;SDS011;24915;50.858;4.376;2022-12-29T11:07:36;23.20;;;4.20;;
39188;SDS011;24915;50.858;4.376;2022-12-29T11:10:28;20.73;;;3.60;;
39188;SDS011;24915;50.858;4.376;2022-12-29T11:15:40;12.10;;;3.25;;
39188;SDS011;24915;50.858;4.376;2022-12-29T11:20:50;19.02;;;3.63;;
39188;SDS011;24915;50.858;4.376;2022-12-29T11:28:36;20.85;;;3.42;;
39188;SDS011;24915;50.858;4.376;2022-12-29T11:31:06;23.65;;;3.63;;
39188;SDS011;24915;50.858;4.376;2022-12-29T11:33:34;21.10;;;3.25;;
39188;SDS011;24915;50.858;4.376;2022-12-29T11:36:04;21.27;;;4.13;;
39188;SDS011;24915;50.858;4.376;2022-12-29T11:38:35;15.32;;;3.45;;
39188;SDS011;24915;50.858;4.376;2022-12-29T11:41:05;17.30;;;2.70;;
39188;SDS011;24915;50.858;4.376;2022-12-29T11:43:38;14.70;;;2.85;;
39188;SDS011;24915;50.858;4.376;2022-12-29T11:46:12;12.63;;;3.75;;
39188;SDS011;24915;50.858;4.376;2022-12-29T11:48:43;18.90;;;4.00;;
39188;SDS011;24915;50.858;4.376;2022-12-29T11:51:11;19.20;;;3.60;;
39188;SDS011;24915;50.858;4.376;2022-12-29T11:53:46;22.48;;;4.00;;
39188;SDS011;24915;50.858;4.376;2022-12-29T11:56:16;16.00;;;4.05;;
39188;SDS011;24915;50.858;4.376;2022-12-29T11:58:58;16.67;;;3.95;;
39188;SDS011;24915;50.858;4.376;2022-12-29T12:01:43;13.88;;;3.58;;
39188;SDS011;24915;50.858;4.376;2022-12-29T12:04:15;13.60;;;3.00;;
39188;SDS011;24915;50.858;4.376;2022-12-29T12:06:48;18.25;;;3.28;;
39188;SDS011;24915;50.858;4.376;2022-12-29T12:09:29;21.55;;;4.65;;
39188;SDS011;24915;50.858;4.376;2022-12-29T12:11:57;20.60;;;3.45;;
39188;SDS011;24915;50.858;4.376;2022-12-29T12:17:09;11.57;;;2.95;;
39188;SDS011;24915;50.858;4.376;2022-12-29T12:22:16;16.63;;;3.17;;
39188;SDS011;24915;50.858;4.376;2022-12-29T12:25:11;17.95;;;3.33;;
39188;SDS011;24915;50.858;4.376;2022-12-29T12:32:44;19.00;;;4.00;;
39188;SDS011;24915;50.858;4.376;2022-12-29T12:35:49;19.40;;;3.15;;
39188;SDS011;24915;50.858;4.376;2022-12-29T12:38:48;20.42;;;3.67;;
39188;SDS011;24915;50.858;4.376;2022-12-29T12:41:31;14.93;;;3.63;;
39188;SDS011;24915;50.858;4.376;2022-12-29T12:44:18;20.55;;;3.83;;
39188;SDS011;24915;50.858;4.376;2022-12-29T12:46:55;17.15;;;3.50;;
39188;SDS011;24915;50.858;4.376;2022-12-29T12:52:25;17.98;;;3.72;;
39188;SDS011;24915;50.858;4.376;2022-12-29T12:58:32;22.63;;;4.20;;
39188;SDS011;24915;50.858;4.376;2022-12-29T13:03:47;14.43;;;2.95;;
39188;SDS011;24915;50.858;4.376;2022-12-29T13:09:33;19.30;;;3.30;;
39188;SDS011;24915;50.858;4.376;2022-12-29T13:14:53;14.48;;;3.08;;
39188;SDS011;24915;50.858;4.376;2022-12-29T13:17:25;12.85;;;3.10;;
39188;SDS011;24915;50.858;4.376;2022-12-29T13:20:16;16.33;;;2.70;;
39188;SDS011;24915;50.858;4.376;2022-12-29T13:23:09;11.60;;;2.90;;
39188;SDS011;24915;50.858;4.376;2022-12-29T13:25:49;17.83;;;3.08;;
39188;SDS011;24915;50.858;4.376;2022-12-29T13:31:01;16.30;;;3.13;;
39188;SDS011;24915;50.858;4.376;2022-12-29T13:33:52;11.68;;;2.83;;
39188;SDS011;24915;50.858;4.376;2022-12-29T13:36:40;15.40;;;2.85;;
39188;SDS011;24915;50.858;4.376;2022-12-29T13:41:46;16.98;;;3.13;;
39188;SDS011;24915;50.858;4.376;2022-12-29T13:44:17;18.98;;;4.13;;
39188;SDS011;24915;50.858;4.376;2022-12-29T13:46:46;13.38;;;2.83;;
39188;SDS011;24915;50.858;4.376;2022-12-29T13:49:16;19.98;;;3.63;;
39188;SDS011;24915;50.858;4.376;2022-12-29T13:51:53;17.42;;;2.92;;
39188;SDS011;24915;50.858;4.376;2022-12-29T13:59:27;20.55;;;3.95;;
39188;SDS011;24915;50.858;4.376;2022-12-29T14:05:02;22.02;;;3.88;;
39188;SDS011;24915;50.858;4.376;2022-12-29T14:07:47;19.30;;;3.60;;
39188;SDS011;24915;50.858;4.376;2022-12-29T14:11:07;18.48;;;3.67;;
39188;SDS011;24915;50.858;4.376;2022-12-29T14:15:44;20.13;;;4.35;;
39188;SDS011;24915;50.858;4.376;2022-12-29T14:18:16;19.27;;;3.45;;
39188;SDS011;24915;50.858;4.376;2022-12-29T14:25:59;18.10;;;3.80;;
39188;SDS011;24915;50.858;4.376;2022-12-29T14:28:27;17.98;;;3.53;;
39188;SDS011;24915;50.858;4.376;2022-12-29T14:30:55;18.85;;;4.82;;
39188;SDS011;24915;50.858;4.376;2022-12-29T14:33:22;25.63;;;4.10;;
39188;SDS011;24915;50.858;4.376;2022-12-29T14:35:51;19.83;;;3.85;;
39188;SDS011;24915;50.858;4.376;2022-12-29T14:38:21;18.92;;;3.95;;
39188;SDS011;24915;50.858;4.376;2022-12-29T14:40:49;17.30;;;4.53;;
39188;SDS011;24915;50.858;4.376;2022-12-29T14:43:24;15.15;;;3.85;;
39188;SDS011;24915;50.858;4.376;2022-12-29T14:45:56;14.90;;;4.25;;
39188;SDS011;24915;50.858;4.376;2022-12-29T14:50:54;19.02;;;3.22;;
39188;SDS011;24915;50.858;4.376;2022-12-29T14:56:13;15.18;;;3.45;;
39188;SDS011;24915;50.858;4.376;2022-12-29T14:58:46;13.63;;;3.40;;
39188;SDS011;24915;50.858;4.376;2022-12-29T15:03:51;8.25;;;2.53;;
39188;SDS011;24915;50.858;4.376;2022-12-29T15:06:21;19.25;;;2.72;;
39188;SDS011;24915;50.858;4.376;2022-12-29T15:09:24;10.38;;;2.40;;
39188;SDS011;24915;50.858;4.376;2022-12-29T15:11:49;9.25;;;2.42;;
39188;SDS011;24915;50.858;4.376;2022-12-29T15:14:28;8.07;;;2.30;;
39188;SDS011;24915;50.858;4.376;2022-12-29T15:16:59;6.45;;;2.63;;
39188;SDS011;24915;50.858;4.376;2022-12-29T15:19:26;9.75;;;2.50;;
39188;SDS011;24915;50.858;4.376;2022-12-29T15:21:53;14.07;;;3.60;;
39188;SDS011;24915;50.858;4.376;2022-12-29T15:24:20;16.17;;;3.25;;
39188;SDS011;24915;50.858;4.376;2022-12-29T15:26:47;10.18;;;3.13;;
39188;SDS011;24915;50.858;4.376;2022-12-29T15:29:34;15.48;;;2.90;;
39188;SDS011;24915;50.858;4.376;2022-12-29T15:32:19;11.55;;;3.00;;
39188;SDS011;24915;50.858;4.376;2022-12-29T15:34:46;7.93;;;2.70;;
39188;SDS011;24915;50.858;4.376;2022-12-29T15:39:49;9.88;;;3.00;;
39188;SDS011;24915;50.858;4.376;2022-12-29T15:45:04;10.48;;;3.08;;
39188;SDS011;24915;50.858;4.376;2022-12-29T15:47:31;13.80;;;3.33;;
39188;SDS011;24915;50.858;4.376;2022-12-29T15:52:46;18.92;;;5.85;;
39188;SDS011;24915;50.858;4.376;2022-12-29T15:55:19;20.38;;;4.90;;
39188;SDS011;24915;50.858;4.376;2022-12-29T15:57:58;17.10;;;4.47;;
39188;SDS011;24915;50.858;4.376;2022-12-29T16:02:57;19.33;;;3.85;;
39188;SDS011;24915;50.858;4.376;2022-12-29T16:05:30;15.57;;;4.43;;
39188;SDS011;24915;50.858;4.376;2022-12-29T16:08:01;17.95;;;4.40;;
39188;SDS011;24915;50.858;4.376;2022-12-29T16:10:35;25.40;;;5.22;;
39188;SDS011;24915;50.858;4.376;2022-12-29T16:13:13;25.70;;;5.68;;
39188;SDS011;24915;50.858;4.376;2022-12-29T16:15:49;18.58;;;4.18;;
39188;SDS011;24915;50.858;4.376;2022-12-29T16:18:23;20.23;;;4.53;;
39188;SDS011;24915;50.858;4.376;2022-12-29T16:20:51;20.13;;;5.15;;
39188;SDS011;24915;50.858;4.376;2022-12-29T16:23:18;31.65;;;5.97;;
39188;SDS011;24915;50.858;4.376;2022-12-29T16:25:47;26.65;;;7.40;;
39188;SDS011;24915;50.858;4.376;2022-12-29T16:28:17;36.35;;;6.30;;
39188;SDS011;24915;50.858;4.376;2022-12-29T16:30:45;28.00;;;5.53;;
39188;SDS011;24915;50.858;4.376;2022-12-29T16:39:08;22.85;;;4.38;;
39188;SDS011;24915;50.858;4.376;2022-12-29T16:41:42;25.10;;;5.28;;
39188;SDS011;24915;50.858;4.376;2022-12-29T16:44:27;24.30;;;4.88;;
39188;SDS011;24915;50.858;4.376;2022-12-29T16:47:28;23.23;;;5.30;;
39188;SDS011;24915;50.858;4.376;2022-12-29T16:49:51;17.08;;;3.88;;
39188;SDS011;24915;50.858;4.376;2022-12-29T16:52:23;25.88;;;5.25;;
39188;SDS011;24915;50.858;4.376;2022-12-29T16:54:56;19.23;;;4.13;;
39188;SDS011;24915;50.858;4.376;2022-12-29T16:57:27;23.55;;;4.47;;
39188;SDS011;24915;50.858;4.376;2022-12-29T17:00:05;29.33;;;5.38;;
39188;SDS011;24915;50.858;4.376;2022-12-29T17:02:32;32.92;;;5.70;;
39188;SDS011;24915;50.858;4.376;2022-12-29T17:05:13;27.17;;;5.90;;
39188;SDS011;24915;50.858;4.376;2022-12-29T17:07:40;25.83;;;5.68;;
39188;SDS011;24915;50.858;4.376;2022-12-29T17:10:05;21.60;;;5.05;;
39188;SDS011;24915;50.858;4.376;2022-12-29T17:12:32;33.95;;;6.88;;
39188;SDS011;24915;50.858;4.376;2022-12-29T17:15:00;24.33;;;4.80;;
39188;SDS011;24915;50.858;4.376;2022-12-29T17:20:19;25.85;;;4.80;;
39188;SDS011;24915;50.858;4.376;2022-12-29T17:22:47;22.85;;;4.40;;
39188;SDS011;24915;50.858;4.376;2022-12-29T17:25:19;20.20;;;4.70;;
39188;SDS011;24915;50.858;4.376;2022-12-29T17:27:53;20.00;;;4.20;;
39188;SDS011;24915;50.858;4.376;2022-12-29T17:30:22;30.92;;;5.13;;
39188;SDS011;24915;50.858;4.376;2022-12-29T17:32:53;28.17;;;5.80;;
39188;SDS011;24915;50.858;4.376;2022-12-29T17:35:26;24.27;;;5.57;;
39188;SDS011;24915;50.858;4.376;2022-12-29T17:37:52;33.60;;;6.13;;